Time;durP1;ratioP1;P1;durP2;ratioP2;P2;SDS_P1;SDS_P2;PMS_P1;PMS_P2;Temp;Humidity;BMP_temperature;BMP_pressure;BME280_temperature;BME280_humidity;BME280_pressure;Samples;Min_cycle;Max_cycle;Signal;HPM_P1;HPM_P2
2021/12/01 00:01:11;;;;;;;3.50;2.00;;;23.30;39.10;;;;;;6135529;28;80422;-73
2021/12/01 00:04:11;;;;;;;3.15;2.08;;;23.30;39.20;;;;;;6135194;28;80108;-73
2021/12/01 00:07:13;;;;;;;4.13;1.83;;;23.20;39.00;;;;;;6136959;28;80551;-73
2021/12/01 00:10:14;;;;;;;4.20;2.22;;;23.30;39.10;;;;;;6136601;28;81275;-73
2021/12/01 00:13:14;;;;;;;2.95;2.03;;;23.30;39.10;;;;;;6136630;28;81827;-73
2021/12/01 00:16:15;;;;;;;5.57;1.95;;;23.30;39.00;;;;;;6135717;28;80695;-73
2021/12/01 00:19:15;;;;;;;3.13;1.90;;;23.30;38.90;;;;;;6135301;28;80856;-72
2021/12/01 00:22:16;;;;;;;3.80;2.10;;;23.30;38.80;;;;;;6134921;28;80421;-71
2021/12/01 00:25:16;;;;;;;4.60;2.63;;;23.20;38.60;;;;;;6131503;28;80351;-71
2021/12/01 00:28:17;;;;;;;3.63;2.40;;;23.20;38.60;;;;;;6130991;28;80640;-72
2021/12/01 00:31:18;;;;;;;4.05;2.17;;;23.30;38.60;;;;;;6149938;28;80519;-72
2021/12/01 00:34:19;;;;;;;4.65;2.45;;;23.30;38.60;;;;;;6140270;28;80247;-71
2021/12/01 00:37:19;;;;;;;3.70;2.20;;;23.30;38.50;;;;;;6151216;28;81930;-71
2021/12/01 00:40:20;;;;;;;4.47;2.58;;;23.30;38.50;;;;;;6137215;28;80733;-71
2021/12/01 00:43:23;;;;;;;3.55;1.95;;;23.20;38.50;;;;;;6122723;28;81585;-72
2021/12/01 00:46:34;;;;;;;2.30;1.90;;;23.30;38.50;;;;;;6133298;28;81340;-72
2021/12/01 00:49:35;;;;;;;4.78;2.67;;;23.20;38.30;;;;;;6136144;28;80564;-73
2021/12/01 00:52:36;;;;;;;3.63;2.28;;;23.30;38.40;;;;;;6135455;28;81038;-72
2021/12/01 00:55:36;;;;;;;5.38;2.17;;;23.20;38.30;;;;;;6148949;28;80491;-72
2021/12/01 00:58:37;;;;;;;2.97;2.03;;;23.30;38.40;;;;;;6132694;28;81195;-73
2021/12/01 01:01:37;;;;;;;5.57;2.63;;;23.30;38.40;;;;;;6134260;28;80776;-71
2021/12/01 01:04:38;;;;;;;3.17;2.10;;;23.30;38.40;;;;;;6134759;28;80353;-71
2021/12/01 01:07:38;;;;;;;3.55;2.22;;;23.30;38.30;;;;;;6129311;28;80529;-71
2021/12/01 01:17:00;;;;;;;4.32;2.47;;;23.30;38.20;;;;;;6122090;28;80632;-72
2021/12/01 01:20:00;;;;;;;4.53;2.30;;;23.30;38.80;;;;;;6134331;28;81143;-71
2021/12/01 01:23:01;;;;;;;4.30;2.40;;;23.20;38.20;;;;;;6149581;28;80988;-71
2021/12/01 01:26:01;;;;;;;5.32;2.35;;;23.30;38.20;;;;;;6135310;28;80535;-71
2021/12/01 01:29:02;;;;;;;5.07;2.35;;;23.30;38.30;;;;;;6123639;28;81297;-71
2021/12/01 01:32:02;;;;;;;6.00;2.63;;;23.20;38.20;;;;;;6134022;28;80853;-71
2021/12/01 01:35:03;;;;;;;4.85;2.22;;;23.20;38.20;;;;;;6129307;28;83495;-71
2021/12/01 01:38:03;;;;;;;4.32;2.10;;;23.30;38.30;;;;;;6133684;28;80292;-70
2021/12/01 01:41:04;;;;;;;3.90;2.20;;;23.30;38.40;;;;;;6139419;28;80151;-73
2021/12/01 01:44:04;;;;;;;4.90;2.42;;;23.30;38.40;;;;;;6137672;28;81432;-70
2021/12/01 01:47:05;;;;;;;3.88;2.08;;;23.20;38.30;;;;;;6137801;28;80123;-70
2021/12/01 01:50:39;;;;;;;5.45;2.60;;;23.30;38.40;;;;;;6139154;28;81182;-70
2021/12/01 01:53:35;;;;;;;4.18;2.05;;;23.30;38.50;;;;;;6137392;28;81497;-70
2021/12/01 01:56:35;;;;;;;4.95;2.33;;;23.30;38.60;;;;;;6135778;28;80571;-69
2021/12/01 01:59:36;;;;;;;2.97;1.88;;;23.30;38.60;;;;;;6137416;28;80939;-70
2021/12/01 02:02:36;;;;;;;4.55;2.20;;;23.30;38.60;;;;;;6136733;28;80320;-70
2021/12/01 02:05:38;;;;;;;4.13;1.80;;;23.30;38.60;;;;;;6137301;28;80408;-69
2021/12/01 02:08:40;;;;;;;4.35;2.15;;;23.30;38.60;;;;;;6137907;28;80682;-69
2021/12/01 02:11:41;;;;;;;4.75;2.08;;;23.30;38.50;;;;;;6137534;28;81789;-70
2021/12/01 02:14:41;;;;;;;4.82;2.53;;;23.20;38.60;;;;;;6138336;28;80752;-69
2021/12/01 02:17:42;;;;;;;4.47;2.17;;;23.30;38.50;;;;;;6133489;28;81798;-69
2021/12/01 02:20:42;;;;;;;5.45;2.70;;;23.20;38.50;;;;;;6138519;28;81519;-69
2021/12/01 02:23:43;;;;;;;4.28;2.10;;;23.30;38.50;;;;;;6128466;28;80551;-70
2021/12/01 02:26:46;;;;;;;3.75;2.15;;;23.20;38.30;;;;;;6137674;28;80583;-69
2021/12/01 02:29:47;;;;;;;4.18;2.28;;;23.30;38.10;;;;;;6136888;28;81801;-69
2021/12/01 02:32:47;;;;;;;6.15;2.38;;;23.30;38.20;;;;;;6137076;28;81550;-70
2021/12/01 02:35:48;;;;;;;6.57;2.10;;;23.30;38.30;;;;;;6139203;28;81136;-70
2021/12/01 02:38:48;;;;;;;3.28;2.05;;;23.30;38.20;;;;;;6136776;28;80442;-71
2021/12/01 02:41:49;;;;;;;4.18;2.50;;;23.30;38.10;;;;;;6138686;28;80811;-70
2021/12/01 02:44:49;;;;;;;5.53;2.10;;;23.30;38.20;;;;;;6136559;28;83381;-70
2021/12/01 02:47:50;;;;;;;5.15;1.92;;;23.20;38.00;;;;;;6141780;28;83306;-69
2021/12/01 02:50:52;;;;;;;3.08;1.90;;;23.30;38.10;;;;;;6133164;28;80152;-69
2021/12/01 02:53:52;;;;;;;3.08;2.10;;;23.30;38.10;;;;;;6137981;28;80403;-70
2021/12/01 02:56:53;;;;;;;4.93;2.10;;;23.20;38.00;;;;;;6137593;28;80262;-70
2021/12/01 02:59:53;;;;;;;3.63;2.10;;;23.30;38.10;;;;;;6141437;28;80222;-70
2021/12/01 03:02:56;;;;;;;2.65;1.63;;;23.30;38.10;;;;;;6132515;28;81167;-69
2021/12/01 03:05:56;;;;;;;2.35;1.70;;;23.20;38.00;;;;;;6126438;28;80217;-70
2021/12/01 03:08:57;;;;;;;4.22;2.03;;;23.20;38.00;;;;;;6135040;28;81475;-71
2021/12/01 03:11:58;;;;;;;3.67;2.13;;;23.30;37.90;;;;;;6148933;28;80191;-70
2021/12/01 03:14:58;;;;;;;3.83;1.70;;;23.20;38.00;;;;;;6132509;28;81708;-70
2021/12/01 03:18:00;;;;;;;4.80;2.13;;;23.20;38.00;;;;;;6137303;28;80276;-71
2021/12/01 03:21:00;;;;;;;2.70;1.92;;;23.20;38.10;;;;;;6135134;28;82827;-70
2021/12/01 03:24:01;;;;;;;4.82;2.00;;;23.20;38.20;;;;;;6152572;28;80461;-70
2021/12/01 03:27:01;;;;;;;3.80;2.00;;;23.20;38.20;;;;;;6122553;28;80872;-71
2021/12/01 03:30:02;;;;;;;3.08;1.80;;;23.20;38.20;;;;;;6136482;28;81622;-69
2021/12/01 03:33:02;;;;;;;2.75;1.92;;;23.20;38.40;;;;;;6134596;28;83090;-70
2021/12/01 03:36:03;;;;;;;2.97;1.77;;;23.20;38.40;;;;;;6135959;28;81520;-70
2021/12/01 03:39:03;;;;;;;4.25;1.67;;;23.20;38.40;;;;;;6136934;28;80754;-70
2021/12/01 03:42:04;;;;;;;3.70;1.90;;;23.20;38.30;;;;;;6144903;28;82800;-70
2021/12/01 03:45:04;;;;;;;4.32;1.80;;;23.30;38.30;;;;;;6134814;28;80252;-70
2021/12/01 03:48:05;;;;;;;5.00;1.95;;;23.20;38.30;;;;;;6131548;28;80682;-70
2021/12/01 03:51:06;;;;;;;3.60;1.70;;;23.20;38.20;;;;;;6132829;28;80150;-69
2021/12/01 03:54:06;;;;;;;3.50;1.70;;;23.20;38.20;;;;;;6136711;28;81289;-69
2021/12/01 03:57:07;;;;;;;1.77;1.33;;;23.20;38.30;;;;;;6134199;28;81651;-70
2021/12/01 04:00:07;;;;;;;3.88;1.70;;;23.20;38.30;;;;;;6145478;28;81593;-72
2021/12/01 04:03:12;;;;;;;2.75;1.80;;;23.20;38.20;;;;;;6131069;28;81227;-72
2021/12/01 04:06:13;;;;;;;3.22;1.55;;;23.20;38.00;;;;;;6134368;28;80717;-71
2021/12/01 04:09:13;;;;;;;2.95;1.60;;;23.20;38.10;;;;;;6136344;28;81518;-70
2021/12/01 04:12:14;;;;;;;5.13;1.67;;;23.20;38.00;;;;;;6134163;28;80638;-70
2021/12/01 04:15:14;;;;;;;3.42;1.65;;;23.20;37.90;;;;;;6135677;28;81515;-69
2021/12/01 04:18:15;;;;;;;2.15;1.30;;;23.20;37.80;;;;;;6134691;28;80376;-68
2021/12/01 04:21:16;;;;;;;2.20;1.40;;;23.20;37.80;;;;;;6133648;28;81714;-68
2021/12/01 04:24:16;;;;;;;3.08;1.75;;;23.20;37.80;;;;;;6126090;28;81879;-69
2021/12/01 04:27:17;;;;;;;2.17;1.48;;;23.20;37.60;;;;;;6148653;28;80403;-70
2021/12/01 04:30:21;;;;;;;2.47;1.50;;;23.20;37.60;;;;;;6132840;28;83046;-71
2021/12/01 04:33:21;;;;;;;2.22;1.40;;;23.20;37.70;;;;;;6121105;28;81745;-71
2021/12/01 04:36:26;;;;;;;2.15;1.63;;;23.20;37.70;;;;;;6133876;28;80750;-70
2021/12/01 04:39:26;;;;;;;2.30;1.58;;;23.20;37.70;;;;;;6126933;28;84868;-69
2021/12/01 04:42:27;;;;;;;3.08;1.48;;;23.20;37.70;;;;;;6122222;28;81611;-70
2021/12/01 04:45:30;;;;;;;2.35;1.45;;;23.20;37.80;;;;;;6129955;28;80506;-70
2021/12/01 04:48:30;;;;;;;1.42;1.30;;;23.20;37.80;;;;;;6135063;28;82817;-69
2021/12/01 04:51:31;;;;;;;2.90;1.60;;;23.20;37.70;;;;;;6135614;28;80793;-69
2021/12/01 04:54:33;;;;;;;6.30;1.80;;;23.20;37.80;;;;;;6132900;28;80772;-69
2021/12/01 04:57:34;;;;;;;3.22;1.50;;;23.20;37.80;;;;;;6130105;28;81889;-71
2021/12/01 05:00:36;;;;;;;1.73;1.40;;;23.20;37.70;;;;;;6131231;28;80258;-70
2021/12/01 05:03:37;;;;;;;3.13;1.77;;;23.20;37.70;;;;;;6139626;28;81443;-70
2021/12/01 05:06:37;;;;;;;2.63;1.40;;;23.20;37.70;;;;;;6143699;28;80602;-70
2021/12/01 05:09:38;;;;;;;2.40;1.40;;;23.20;37.70;;;;;;6154840;28;80876;-70
2021/12/01 05:12:38;;;;;;;2.28;1.60;;;23.20;37.80;;;;;;6140303;28;80650;-71
2021/12/01 05:15:39;;;;;;;4.50;1.40;;;23.20;37.80;;;;;;6133510;28;80657;-71
2021/12/01 05:18:39;;;;;;;3.38;1.55;;;23.10;37.70;;;;;;6137990;28;80458;-70
2021/12/01 05:21:40;;;;;;;2.72;1.52;;;23.10;37.80;;;;;;6138019;28;80264;-69
2021/12/01 05:24:40;;;;;;;3.65;1.73;;;23.10;37.90;;;;;;6136034;28;80172;-70
2021/12/01 05:27:41;;;;;;;3.47;1.40;;;23.20;38.10;;;;;;6137947;28;81179;-70
2021/12/01 05:30:41;;;;;;;5.78;1.45;;;23.20;38.50;;;;;;6129906;28;80312;-70
2021/12/01 05:33:42;;;;;;;4.28;1.70;;;23.10;38.10;;;;;;6135029;28;80409;-70
2021/12/01 05:36:42;;;;;;;2.25;1.42;;;23.10;37.40;;;;;;6137189;28;83409;-67
2021/12/01 05:39:45;;;;;;;2.05;1.42;;;23.10;37.30;;;;;;6127495;28;80347;-69
2021/12/01 05:42:45;;;;;;;2.35;1.65;;;23.20;37.30;;;;;;6135954;28;80330;-68
2021/12/01 05:45:46;;;;;;;2.70;1.55;;;23.20;37.40;;;;;;6134475;28;80552;-70
2021/12/01 05:48:46;;;;;;;2.85;1.50;;;23.20;37.40;;;;;;6141542;28;81816;-67
2021/12/01 05:51:47;;;;;;;1.80;1.40;;;23.20;37.20;;;;;;6135738;28;81045;-72
2021/12/01 05:54:50;;;;;;;3.15;1.83;;;23.30;37.20;;;;;;6136430;28;80381;-75
2021/12/01 05:57:51;;;;;;;7.07;2.60;;;23.30;37.10;;;;;;6133552;28;81344;-71
2021/12/01 06:00:52;;;;;;;11.32;3.35;;;23.30;37.30;;;;;;6126362;28;80770;-75
2021/12/01 06:03:52;;;;;;;13.00;3.90;;;23.30;37.70;;;;;;6151176;28;80450;-71
2021/12/01 06:06:53;;;;;;;30.65;3.88;;;23.30;38.40;;;;;;6134490;28;81375;-71
2021/12/01 06:09:53;;;;;;;10.30;3.40;;;23.20;39.70;;;;;;6137034;28;80700;-71
2021/12/01 06:12:54;;;;;;;8.18;2.90;;;23.10;42.50;;;;;;6136621;28;81633;-71
2021/12/01 06:15:55;;;;;;;14.60;3.30;;;23.10;43.80;;;;;;6137425;28;81331;-71
2021/12/01 06:18:55;;;;;;;10.93;2.55;;;23.10;45.50;;;;;;6136625;28;80420;-72
2021/12/01 06:21:56;;;;;;;8.07;3.05;;;23.10;47.20;;;;;;6140129;28;80394;-71
2021/12/01 06:24:57;;;;;;;6.72;2.45;;;23.10;48.50;;;;;;6130504;28;82091;-70
2021/12/01 06:27:57;;;;;;;5.22;2.10;;;23.10;47.90;;;;;;6139831;28;81751;-70
2021/12/01 06:30:58;;;;;;;112.40;52.17;;;23.10;47.80;;;;;;6136569;28;80404;-70
2021/12/01 06:33:59;;;;;;;188.90;89.15;;;23.00;49.00;;;;;;6134055;28;83287;-71
2021/12/01 06:37:00;;;;;;;184.20;91.97;;;23.00;49.30;;;;;;6132217;28;83206;-70
2021/12/01 06:40:00;;;;;;;133.50;65.22;;;23.00;49.70;;;;;;6129319;28;83651;-66
2021/12/01 06:43:01;;;;;;;109.53;52.20;;;23.00;48.90;;;;;;6134197;28;90310;-68
2021/12/01 06:46:01;;;;;;;184.52;86.22;;;23.00;48.60;;;;;;6134241;28;83500;-68
2021/12/01 06:49:02;;;;;;;283.90;133.93;;;22.90;48.90;;;;;;6131779;28;83580;-70
2021/12/01 06:52:02;;;;;;;327.10;159.55;;;22.90;49.50;;;;;;6131306;28;85492;-69
2021/12/01 06:55:03;;;;;;;319.52;147.45;;;22.90;49.90;;;;;;6128423;28;88072;-68
2021/12/01 06:58:03;;;;;;;253.70;117.93;;;22.90;50.40;;;;;;6128411;28;85437;-68
2021/12/01 07:01:05;;;;;;;207.23;97.30;;;22.90;50.60;;;;;;6120500;28;87893;-70
2021/12/01 07:04:05;;;;;;;168.63;75.95;;;23.00;50.60;;;;;;6124743;28;86144;-68
2021/12/01 07:07:06;;;;;;;134.07;61.40;;;23.00;50.60;;;;;;6127588;28;86916;-69
2021/12/01 07:10:06;;;;;;;117.32;56.97;;;23.10;50.40;;;;;;6129091;28;84411;-69
2021/12/01 07:13:07;;;;;;;113.97;53.53;;;23.10;49.80;;;;;;6144962;28;84136;-66
2021/12/01 07:16:07;;;;;;;102.38;47.83;;;23.20;50.30;;;;;;6127170;28;83330;-71
2021/12/01 07:19:08;;;;;;;105.13;42.30;;;23.20;49.10;;;;;;6131973;28;83415;-68
2021/12/01 07:22:08;;;;;;;89.43;38.42;;;23.20;48.90;;;;;;6134506;28;83492;-69
2021/12/01 07:25:09;;;;;;;73.07;33.90;;;23.20;48.40;;;;;;6127788;28;83516;-72
2021/12/01 07:28:09;;;;;;;69.22;33.13;;;23.20;48.50;;;;;;6132247;28;82982;-70
2021/12/01 07:31:10;;;;;;;69.18;31.02;;;23.30;48.40;;;;;;6128902;28;85117;-69
2021/12/01 07:34:10;;;;;;;52.55;26.80;;;23.30;48.20;;;;;;6130175;28;82959;-71
2021/12/01 07:37:11;;;;;;;58.38;24.02;;;23.20;47.80;;;;;;6143033;28;83831;-76
2021/12/01 07:40:12;;;;;;;50.33;23.23;;;23.30;47.40;;;;;;6127951;28;84119;-74
2021/12/01 07:43:12;;;;;;;43.10;19.77;;;23.20;47.50;;;;;;6128922;28;84931;-70
2021/12/01 07:46:13;;;;;;;39.00;19.77;;;23.30;46.80;;;;;;6126655;28;83082;-72
2021/12/01 07:49:13;;;;;;;39.83;18.73;;;23.20;47.40;;;;;;6130306;28;83787;-72
2021/12/01 07:52:14;;;;;;;33.40;14.93;;;23.30;47.50;;;;;;6126671;28;84577;-69
2021/12/01 07:55:14;;;;;;;26.95;14.27;;;23.20;44.80;;;;;;6126742;28;83052;-70
2021/12/01 07:58:15;;;;;;;26.67;11.68;;;23.20;44.00;;;;;;6125821;28;83397;-71
2021/12/01 08:01:15;;;;;;;22.20;10.57;;;23.20;43.00;;;;;;6127107;28;84079;-68
2021/12/01 08:04:16;;;;;;;16.52;7.97;;;23.20;43.00;;;;;;6129712;28;84463;-71
2021/12/01 08:07:18;;;;;;;15.02;7.57;;;23.20;43.00;;;;;;6131665;28;83030;-73
2021/12/01 08:10:18;;;;;;;11.40;5.72;;;23.10;43.50;;;;;;6129710;28;80384;-72
2021/12/01 08:13:19;;;;;;;15.35;6.93;;;23.10;43.20;;;;;;6132864;28;81214;-72
2021/12/01 08:16:19;;;;;;;11.75;6.18;;;23.10;43.40;;;;;;6146753;28;81958;-71
2021/12/01 08:19:21;;;;;;;9.25;4.72;;;23.10;43.40;;;;;;6129751;28;81650;-71
2021/12/01 08:22:21;;;;;;;8.10;4.45;;;23.10;43.50;;;;;;6129831;28;81450;-72
2021/12/01 08:25:22;;;;;;;7.30;4.07;;;23.20;43.50;;;;;;6122491;28;80988;-71
2021/12/01 08:28:23;;;;;;;7.13;3.50;;;23.20;43.60;;;;;;6109030;28;81533;-71
2021/12/01 08:31:23;;;;;;;7.50;4.07;;;23.30;43.90;;;;;;6115340;28;81097;-72
2021/12/01 08:34:24;;;;;;;9.25;4.03;;;23.30;43.90;;;;;;6131950;28;80161;-70
2021/12/01 08:37:24;;;;;;;7.47;4.05;;;23.40;44.00;;;;;;6141948;28;82809;-73
2021/12/01 08:40:25;;;;;;;4.53;2.90;;;23.40;43.90;;;;;;6129335;28;80216;-70
2021/12/01 08:43:25;;;;;;;6.85;3.45;;;23.50;44.00;;;;;;6129733;28;80880;-71
2021/12/01 08:46:26;;;;;;;5.93;2.90;;;23.50;43.30;;;;;;6142463;28;80474;-72
2021/12/01 08:49:26;;;;;;;4.30;2.70;;;23.50;43.60;;;;;;6131359;28;80434;-71
2021/12/01 08:52:27;;;;;;;5.78;2.45;;;23.60;43.30;;;;;;6130556;28;80601;-72
2021/12/01 08:55:27;;;;;;;5.93;3.00;;;23.60;43.00;;;;;;6128648;28;81638;-72
2021/12/01 08:58:28;;;;;;;4.57;2.70;;;23.70;43.00;;;;;;6126472;28;81278;-72
2021/12/01 09:01:29;;;;;;;4.88;2.55;;;23.80;43.00;;;;;;6129741;28;81756;-72
2021/12/01 09:04:29;;;;;;;8.75;3.05;;;23.90;42.90;;;;;;6127030;28;80392;-72
2021/12/01 09:07:30;;;;;;;4.00;2.10;;;24.00;42.30;;;;;;6130844;28;81824;-69
2021/12/01 09:10:31;;;;;;;4.82;2.38;;;24.00;42.30;;;;;;6131228;28;80785;-72
2021/12/01 09:13:31;;;;;;;5.82;2.90;;;24.10;42.10;;;;;;6130218;28;81153;-73
2021/12/01 09:16:32;;;;;;;3.83;2.13;;;24.10;42.10;;;;;;6130545;28;80530;-73
2021/12/01 09:19:32;;;;;;;4.25;2.60;;;24.10;41.90;;;;;;6129129;28;81160;-72
2021/12/01 09:22:33;;;;;;;4.20;2.22;;;24.10;41.40;;;;;;6130828;28;80923;-71
2021/12/01 09:25:34;;;;;;;15.07;3.33;;;24.10;41.20;;;;;;6132601;28;81751;-71
2021/12/01 09:28:34;;;;;;;6.13;2.97;;;24.10;42.30;;;;;;6130626;28;80244;-69
2021/12/01 09:31:35;;;;;;;7.90;2.72;;;24.10;42.00;;;;;;6127190;28;80368;-73
2021/12/01 09:34:35;;;;;;;6.60;2.83;;;24.10;41.50;;;;;;6136960;28;81774;-74
2021/12/01 09:37:36;;;;;;;5.18;2.78;;;24.20;40.90;;;;;;6136687;28;87072;-73
2021/12/01 09:40:36;;;;;;;6.95;3.08;;;24.20;40.50;;;;;;6140464;28;80501;-72
2021/12/01 09:43:37;;;;;;;5.70;2.55;;;24.40;40.80;;;;;;6123764;28;81581;-72
2021/12/01 09:46:37;;;;;;;5.18;2.50;;;24.40;40.60;;;;;;6142642;28;80601;-72
2021/12/01 09:49:38;;;;;;;5.13;2.10;;;24.50;40.80;;;;;;6130061;28;81131;-73
2021/12/01 09:52:38;;;;;;;4.50;2.40;;;24.60;41.50;;;;;;6127203;28;82995;-74
2021/12/01 09:55:43;;;;;;;4.97;2.50;;;24.50;41.10;;;;;;6127271;28;81733;-73
2021/12/01 09:58:43;;;;;;;3.33;2.13;;;24.50;41.10;;;;;;6125338;28;80685;-73
2021/12/01 10:01:44;;;;;;;4.70;2.20;;;24.60;41.40;;;;;;6131642;28;80841;-75
2021/12/01 10:04:45;;;;;;;4.30;2.03;;;24.60;41.70;;;;;;6135822;28;80504;-71
2021/12/01 10:07:45;;;;;;;3.85;2.28;;;24.60;41.70;;;;;;6129066;28;80705;-72
2021/12/01 10:10:46;;;;;;;3.38;2.05;;;24.50;41.70;;;;;;6149136;28;83555;-74
2021/12/01 10:13:47;;;;;;;2.28;1.63;;;24.50;41.80;;;;;;6137851;28;80364;-74
2021/12/01 10:16:47;;;;;;;3.03;1.80;;;24.50;42.60;;;;;;6134899;28;80526;-75
2021/12/01 10:19:48;;;;;;;3.20;1.92;;;24.40;42.40;;;;;;6134965;28;81488;-74
2021/12/01 10:22:48;;;;;;;4.38;2.10;;;24.40;42.40;;;;;;6129979;28;81973;-74
2021/12/01 10:25:49;;;;;;;6.03;2.00;;;24.30;42.40;;;;;;6140944;28;80490;-74
2021/12/01 10:28:50;;;;;;;2.97;1.73;;;24.30;42.80;;;;;;6134821;28;81177;-73
2021/12/01 10:31:51;;;;;;;3.13;1.98;;;24.20;42.70;;;;;;6132296;28;80447;-77
2021/12/01 10:34:58;;;;;;;2.45;1.88;;;24.10;42.60;;;;;;6133454;28;80947;-75
2021/12/01 10:37:58;;;;;;;3.17;2.15;;;24.10;42.70;;;;;;6139380;28;80518;-73
2021/12/01 10:40:59;;;;;;;3.50;1.77;;;24.00;41.90;;;;;;6133527;28;81002;-73
2021/12/01 10:43:59;;;;;;;3.15;1.55;;;23.90;42.20;;;;;;6128848;28;81405;-73
2021/12/01 10:47:00;;;;;;;3.78;1.52;;;23.90;42.90;;;;;;6137717;28;81625;-72
2021/12/01 10:50:00;;;;;;;3.20;1.70;;;23.80;42.80;;;;;;6134727;28;81737;-72
2021/12/01 10:53:01;;;;;;;4.32;1.98;;;23.80;43.20;;;;;;6132624;28;80479;-71
2021/12/01 10:56:01;;;;;;;5.22;2.90;;;23.70;43.10;;;;;;6134496;28;80524;-72
2021/12/01 10:59:02;;;;;;;8.57;3.97;;;23.70;43.50;;;;;;6124068;28;80906;-73
2021/12/01 11:02:02;;;;;;;12.63;6.07;;;23.60;42.90;;;;;;6137389;28;80655;-72
2021/12/01 11:05:03;;;;;;;14.90;8.13;;;23.60;43.80;;;;;;6137465;28;81404;-73
2021/12/01 11:08:03;;;;;;;23.20;10.93;;;23.60;43.50;;;;;;6141141;28;80627;-72
2021/12/01 11:11:04;;;;;;;36.42;18.02;;;23.50;44.10;;;;;;6131420;28;82999;-70
2021/12/01 11:14:04;;;;;;;40.78;21.15;;;23.50;44.00;;;;;;6130148;28;83559;-71
2021/12/01 11:17:05;;;;;;;56.47;27.13;;;23.50;43.80;;;;;;6132719;28;83245;-71
2021/12/01 11:20:05;;;;;;;55.03;27.48;;;23.40;44.20;;;;;;6132887;28;83044;-72
2021/12/01 11:23:06;;;;;;;52.10;27.02;;;23.40;44.10;;;;;;6135336;28;82966;-71
2021/12/01 11:26:10;;;;;;;63.20;29.38;;;23.40;44.50;;;;;;6128335;28;83057;-69
2021/12/01 11:29:12;;;;;;;48.83;23.63;;;23.40;45.00;;;;;;6131232;28;84372;-69
2021/12/01 11:32:13;;;;;;;49.75;23.20;;;23.40;45.30;;;;;;6117066;28;82972;-71
2021/12/01 11:35:13;;;;;;;39.17;20.17;;;23.40;45.80;;;;;;6131434;28;83351;-72
2021/12/01 11:38:14;;;;;;;41.83;19.90;;;23.20;45.70;;;;;;6147651;28;83128;-72
2021/12/01 11:41:14;;;;;;;39.22;18.27;;;23.30;46.30;;;;;;6131313;28;83621;-73
2021/12/01 11:44:15;;;;;;;36.50;16.88;;;23.20;47.00;;;;;;6123232;28;83348;-72
2021/12/01 11:47:16;;;;;;;33.67;15.13;;;23.30;46.40;;;;;;6132076;28;83032;-69
2021/12/01 11:50:16;;;;;;;28.50;12.88;;;23.30;46.20;;;;;;6128272;28;83212;-69
2021/12/01 11:53:17;;;;;;;24.25;12.00;;;23.30;45.90;;;;;;6132505;28;83262;-70
2021/12/01 11:56:17;;;;;;;22.83;10.43;;;23.30;46.20;;;;;;6121524;28;83476;-70
2021/12/01 11:59:18;;;;;;;17.80;10.10;;;23.30;45.80;;;;;;6133275;28;83805;-70
2021/12/01 12:02:19;;;;;;;20.80;9.45;;;23.30;45.90;;;;;;6133492;28;82915;-70
2021/12/01 12:05:21;;;;;;;17.73;8.38;;;23.30;45.70;;;;;;6134257;28;81777;-72
2021/12/01 12:08:21;;;;;;;18.27;8.00;;;23.30;45.70;;;;;;6133272;28;81555;-69
2021/12/01 12:11:22;;;;;;;17.58;7.13;;;23.20;45.60;;;;;;6134256;28;81875;-70
2021/12/01 12:14:22;;;;;;;12.02;6.88;;;23.20;45.60;;;;;;6135157;28;80892;-70
2021/12/01 12:17:23;;;;;;;9.75;5.70;;;23.20;46.00;;;;;;6135516;28;80043;-68
2021/12/01 12:20:34;;;;;;;11.95;5.53;;;23.20;46.00;;;;;;6129096;28;80694;-71
2021/12/01 12:23:35;;;;;;;10.07;4.63;;;23.10;46.20;;;;;;6135840;28;80367;-71
2021/12/01 12:26:36;;;;;;;9.30;5.20;;;23.10;46.40;;;;;;6133630;28;80743;-70
2021/12/01 12:29:36;;;;;;;8.75;4.75;;;23.10;46.60;;;;;;6126046;28;80894;-69
2021/12/01 12:32:37;;;;;;;8.07;4.18;;;23.00;47.30;;;;;;6122368;28;82779;-69
2021/12/01 12:35:38;;;;;;;5.95;3.17;;;23.00;46.50;;;;;;6132392;28;80498;-67
2021/12/01 12:38:38;;;;;;;5.07;3.08;;;23.00;46.70;;;;;;6149964;28;80616;-70
2021/12/01 12:41:41;;;;;;;12.00;3.53;;;23.00;47.10;;;;;;6132926;28;82402;-69
2021/12/01 12:44:42;;;;;;;4.03;2.80;;;23.00;46.90;;;;;;6134808;28;80584;-70
2021/12/01 12:47:44;;;;;;;6.78;3.63;;;23.00;47.10;;;;;;6146887;28;81596;-70
2021/12/01 12:50:44;;;;;;;5.88;3.47;;;22.90;47.00;;;;;;6128237;28;80485;-70
2021/12/01 12:53:45;;;;;;;5.65;3.42;;;22.90;47.20;;;;;;6118787;28;81612;-71
2021/12/01 12:56:45;;;;;;;8.00;2.75;;;23.00;47.70;;;;;;6132316;28;80401;-70
2021/12/01 12:59:46;;;;;;;7.38;3.47;;;22.90;47.70;;;;;;6119636;28;80800;-72
2021/12/01 13:02:47;;;;;;;10.65;3.38;;;23.00;47.90;;;;;;6120775;28;80387;-71
2021/12/01 13:05:47;;;;;;;5.25;3.05;;;23.00;48.00;;;;;;6123203;28;83458;-73
2021/12/01 13:08:48;;;;;;;4.20;2.80;;;23.00;48.10;;;;;;6125859;28;80829;-71
2021/12/01 13:11:48;;;;;;;5.32;2.35;;;23.00;47.80;;;;;;6125306;28;80702;-71
2021/12/01 13:14:49;;;;;;;3.78;2.35;;;23.00;47.60;;;;;;6129360;28;80388;-73
2021/12/01 13:17:49;;;;;;;9.68;2.67;;;22.90;47.80;;;;;;6130288;28;80651;-73
2021/12/01 13:20:50;;;;;;;2.70;2.10;;;22.90;47.70;;;;;;6126830;28;80648;-73
2021/12/01 13:23:51;;;;;;;3.15;2.28;;;22.90;47.70;;;;;;6133214;28;80345;-72
2021/12/01 13:26:51;;;;;;;6.47;2.00;;;22.90;47.60;;;;;;6128092;28;81554;-73
2021/12/01 13:29:52;;;;;;;3.78;2.03;;;22.90;48.20;;;;;;6135959;28;80630;-70
2021/12/01 13:32:52;;;;;;;8.13;2.00;;;22.90;48.30;;;;;;6132336;28;83257;-72
2021/12/01 13:35:53;;;;;;;6.32;2.95;;;22.90;48.40;;;;;;6137967;28;80262;-72
2021/12/01 13:38:53;;;;;;;2.58;2.00;;;22.80;48.30;;;;;;6138142;28;80708;-74
2021/12/01 13:41:54;;;;;;;4.72;2.15;;;22.90;48.50;;;;;;6124416;28;81289;-73
2021/12/01 13:44:55;;;;;;;2.75;1.83;;;22.90;48.50;;;;;;6137012;28;80788;-73
2021/12/01 13:47:56;;;;;;;2.85;2.08;;;22.90;48.70;;;;;;6135730;28;81773;-73
2021/12/01 13:50:56;;;;;;;3.70;2.05;;;22.80;48.40;;;;;;6139125;28;80403;-71
2021/12/01 13:53:57;;;;;;;4.38;2.38;;;22.90;48.20;;;;;;6138665;28;80647;-67
2021/12/01 13:56:58;;;;;;;4.82;1.80;;;22.80;48.10;;;;;;6135249;28;81019;-71
2021/12/01 14:00:01;;;;;;;3.03;2.10;;;22.80;48.20;;;;;;6134285;28;80433;-68
2021/12/01 14:03:01;;;;;;;3.95;2.72;;;22.80;48.10;;;;;;6149411;28;80820;-70
2021/12/01 14:06:02;;;;;;;4.75;2.33;;;22.80;48.10;;;;;;6140059;28;80810;-70
2021/12/01 14:09:02;;;;;;;4.53;2.35;;;22.70;47.90;;;;;;6137348;28;81138;-70
2021/12/01 14:12:03;;;;;;;5.93;2.70;;;22.70;48.20;;;;;;6154948;28;80711;-70
2021/12/01 14:15:04;;;;;;;6.18;2.28;;;22.80;47.90;;;;;;6148857;28;80300;-70
2021/12/01 14:18:04;;;;;;;6.65;3.03;;;22.80;48.00;;;;;;6146797;28;80823;-71
2021/12/01 14:21:05;;;;;;;3.97;2.33;;;22.80;48.10;;;;;;6137995;28;80892;-72
2021/12/01 14:24:05;;;;;;;4.45;2.28;;;22.80;48.40;;;;;;6137939;28;80445;-73
2021/12/01 14:27:07;;;;;;;4.13;2.35;;;22.80;48.20;;;;;;6129025;28;80569;-73
2021/12/01 14:30:08;;;;;;;4.13;2.30;;;22.80;48.70;;;;;;6132092;28;80479;-74
2021/12/01 14:33:09;;;;;;;7.35;2.97;;;22.80;49.00;;;;;;6140183;28;80617;-74
2021/12/01 14:36:09;;;;;;;3.50;2.75;;;22.80;48.80;;;;;;6138658;28;80056;-72
2021/12/01 14:39:10;;;;;;;6.22;2.25;;;22.80;49.50;;;;;;6134185;28;80130;-72
2021/12/01 14:42:10;;;;;;;7.00;2.55;;;22.80;49.40;;;;;;6130367;28;80632;-69
2021/12/01 14:45:11;;;;;;;4.88;2.92;;;22.80;49.60;;;;;;6134514;28;82377;-71
2021/12/01 14:48:11;;;;;;;4.78;2.30;;;22.80;49.00;;;;;;6129671;28;80380;-74
2021/12/01 14:51:12;;;;;;;4.60;2.60;;;22.80;49.20;;;;;;6138123;28;80551;-75
2021/12/01 14:54:12;;;;;;;3.05;2.22;;;22.80;49.10;;;;;;6130962;28;81539;-74
2021/12/01 14:57:13;;;;;;;4.25;2.55;;;22.80;49.30;;;;;;6136636;28;82372;-74
2021/12/01 15:00:13;;;;;;;5.70;2.65;;;22.80;49.20;;;;;;6136681;28;80328;-73
2021/12/01 15:03:14;;;;;;;6.15;2.67;;;22.80;49.20;;;;;;6126462;28;81653;-76
2021/12/01 15:06:14;;;;;;;2.80;2.17;;;22.80;49.30;;;;;;6135980;28;80255;-74
2021/12/01 15:09:15;;;;;;;3.88;2.70;;;22.80;49.00;;;;;;6136339;28;80990;-74
2021/12/01 15:12:16;;;;;;;4.90;2.10;;;22.80;48.60;;;;;;6151798;28;82093;-71
2021/12/01 15:15:16;;;;;;;3.22;2.40;;;22.80;48.80;;;;;;6130688;28;80513;-74
2021/12/01 15:18:16;;;;;;;6.43;2.42;;;22.80;48.90;;;;;;6137361;28;81465;-70
2021/12/01 15:21:17;;;;;;;3.80;2.55;;;22.80;48.80;;;;;;6134921;28;81378;-76
2021/12/01 15:24:18;;;;;;;5.90;2.35;;;22.80;48.90;;;;;;6136540;28;80781;-75
2021/12/01 15:27:18;;;;;;;3.08;2.40;;;22.80;48.80;;;;;;6136219;28;81013;-75
2021/12/01 15:30:19;;;;;;;5.78;1.90;;;22.80;48.80;;;;;;6136046;28;80728;-76
2021/12/01 15:33:19;;;;;;;3.28;2.45;;;22.80;49.00;;;;;;6136675;28;80293;-73
2021/12/01 15:36:20;;;;;;;5.35;1.85;;;22.80;49.00;;;;;;6116983;28;81703;-68
2021/12/01 15:39:21;;;;;;;8.10;2.85;;;22.70;49.50;;;;;;6123555;28;80823;-70
2021/12/01 15:42:22;;;;;;;9.65;2.40;;;22.80;48.80;;;;;;6122895;28;80606;-72